createdAt,value
2019-04-10T00:00:53.474Z,947.33
2019-04-10T00:01:53.483Z,947.35
2019-04-10T00:02:53.645Z,947.36
2019-04-10T00:03:54.340Z,947.34
2019-04-10T00:04:53.654Z,947.41
2019-04-10T00:05:53.444Z,947.42
2019-04-10T00:06:54.236Z,947.40
2019-04-10T00:07:55.467Z,947.42
2019-04-10T00:08:53.395Z,947.47
2019-04-10T00:09:53.415Z,947.43
2019-04-10T00:10:54.319Z,947.38
2019-04-10T00:11:53.510Z,947.41
2019-04-10T00:12:54.125Z,947.43
2019-04-10T00:13:53.324Z,947.36
2019-04-10T00:14:53.304Z,947.34
2019-04-10T00:15:53.334Z,947.46
2019-04-10T00:16:54.264Z,947.43
2019-04-10T00:17:53.560Z,947.45
2019-04-10T00:18:53.964Z,947.37
2019-04-10T00:19:54.010Z,947.42
2019-04-10T00:20:53.273Z,947.47
2019-04-10T00:21:53.597Z,947.50
2019-04-10T00:22:53.224Z,947.42
2019-04-10T00:23:53.447Z,947.43
2019-04-10T00:24:53.210Z,947.48
2019-04-10T00:25:53.184Z,947.34
2019-04-10T00:26:54.297Z,947.45
2019-04-10T00:27:53.167Z,947.52
2019-04-10T00:28:53.894Z,947.36
2019-04-10T00:29:54.315Z,947.43
2019-04-10T00:30:53.576Z,947.49
2019-04-10T00:31:54.156Z,947.40
2019-04-10T00:32:54.342Z,947.42
2019-04-10T00:33:53.543Z,947.52
2019-04-10T00:34:54.023Z,947.44
2019-04-10T00:35:53.995Z,947.40
2019-04-10T00:36:53.370Z,947.47
2019-04-10T00:37:53.439Z,947.44
2019-04-10T00:38:53.864Z,947.41
2019-04-10T00:39:53.095Z,947.43
2019-04-10T00:40:53.024Z,947.45
2019-04-10T00:41:53.022Z,947.33
2019-04-10T00:42:53.764Z,947.38
2019-04-10T00:43:53.098Z,947.40
2019-04-10T00:44:54.204Z,947.39
2019-04-10T00:45:53.613Z,947.35
2019-04-10T00:46:52.972Z,947.38
2019-04-10T00:47:53.173Z,947.36
2019-04-10T00:48:53.004Z,947.33
2019-04-10T00:49:53.673Z,947.36
2019-04-10T00:50:53.033Z,947.39
2019-04-10T00:51:52.896Z,947.32
2019-04-10T00:52:52.899Z,947.35
2019-04-10T00:53:53.797Z,947.29
2019-04-10T00:54:52.937Z,947.33
2019-04-10T00:55:52.873Z,947.33
2019-04-10T00:56:52.904Z,947.24
2019-04-10T00:57:54.601Z,947.39
2019-04-10T00:58:53.238Z,947.29
2019-04-10T00:59:52.853Z,947.38
2019-04-10T01:00:52.849Z,947.37
2019-04-10T01:01:52.794Z,947.36
2019-04-10T01:02:53.344Z,947.36
2019-04-10T01:03:53.828Z,947.27
2019-04-10T01:04:52.995Z,947.32
2019-04-10T01:05:52.754Z,947.31
2019-04-10T01:06:52.746Z,947.32
2019-04-10T01:07:53.882Z,947.31
2019-04-10T01:08:53.123Z,947.32
2019-04-10T01:09:53.442Z,947.31
2019-04-10T01:10:52.706Z,947.24
2019-04-10T01:11:52.684Z,947.27
2019-04-10T01:12:52.684Z,947.28
2019-04-10T01:13:53.675Z,947.25
2019-04-10T01:14:52.686Z,947.22
2019-04-10T01:15:53.119Z,947.25
2019-04-10T01:16:52.626Z,947.21
2019-04-10T01:17:52.819Z,947.24
2019-04-10T01:18:53.252Z,947.29
2019-04-10T01:19:52.634Z,947.28
2019-04-10T01:20:53.534Z,947.16
2019-04-10T01:21:52.793Z,947.30
2019-04-10T01:22:52.566Z,947.26
2019-04-10T01:23:53.248Z,947.26
2019-04-10T01:24:52.574Z,947.22
2019-04-10T01:25:52.700Z,947.17
2019-04-10T01:26:52.515Z,947.29
2019-04-10T01:27:52.536Z,947.24
2019-04-10T01:28:54.029Z,947.20
2019-04-10T01:29:53.596Z,947.20
2019-04-10T01:30:52.815Z,947.16
2019-04-10T01:31:53.153Z,947.24
2019-04-10T01:32:52.478Z,947.15
2019-04-10T01:33:52.712Z,947.17
2019-04-10T01:34:52.437Z,947.12
2019-04-10T01:35:52.434Z,947.22
2019-04-10T01:36:52.490Z,947.16
2019-04-10T01:37:57.688Z,947.14
2019-04-10T01:38:53.789Z,947.21
2019-04-10T01:39:52.806Z,947.13
2019-04-10T01:40:53.112Z,947.13
2019-04-10T01:41:52.412Z,947.11
2019-04-10T01:43:03.262Z,947.18
2019-04-10T01:43:53.332Z,947.14
2019-04-10T01:44:53.153Z,947.06
2019-04-10T01:45:52.325Z,947.16
2019-04-10T01:46:52.962Z,947.11
2019-04-10T01:47:53.283Z,947.09
2019-04-10T01:48:53.286Z,947.10
2019-04-10T01:49:52.267Z,947.10
2019-04-10T01:50:52.881Z,947.11
2019-04-10T01:51:52.286Z,947.04
2019-04-10T01:52:53.326Z,947.09
2019-04-10T01:53:52.404Z,947.09
2019-04-10T01:54:52.444Z,947.05
2019-04-10T01:55:53.397Z,947.10
2019-04-10T01:56:52.211Z,947.02
2019-04-10T01:57:52.653Z,947.08
2019-04-10T01:58:52.204Z,947.01
2019-04-10T01:59:52.166Z,947.05
2019-04-10T02:00:52.186Z,947.00
2019-04-10T02:01:52.606Z,947.03
2019-04-10T02:02:52.141Z,946.98
2019-04-10T02:03:52.115Z,946.99
2019-04-10T02:04:53.730Z,947.09
2019-04-10T02:05:52.625Z,947.11
2019-04-10T02:06:52.088Z,947.02
2019-04-10T02:08:01.124Z,947.02
2019-04-10T02:08:54.135Z,947.08
2019-04-10T02:09:52.074Z,947.00
2019-04-10T02:10:52.275Z,946.99
2019-04-10T02:11:52.343Z,947.05
2019-04-10T02:12:52.681Z,947.02
2019-04-10T02:13:52.013Z,947.13
2019-04-10T02:14:52.318Z,947.11
2019-04-10T02:15:52.433Z,947.09
2019-04-10T02:16:52.065Z,947.00
2019-04-10T02:17:52.949Z,947.10
2019-04-10T02:18:52.053Z,946.97
2019-04-10T02:19:51.967Z,947.04
2019-04-10T02:20:51.933Z,947.00
2019-04-10T02:21:51.947Z,947.04
2019-04-10T02:22:52.001Z,946.95
2019-04-10T02:23:52.414Z,947.04
2019-04-10T02:24:51.886Z,946.95
2019-04-10T02:25:52.830Z,946.98
2019-04-10T02:26:51.978Z,946.96
2019-04-10T02:27:51.869Z,946.96
2019-04-10T02:28:51.878Z,946.93
2019-04-10T02:29:52.312Z,947.03
2019-04-10T02:30:51.979Z,947.01
2019-04-10T02:31:52.802Z,947.02
2019-04-10T02:32:52.940Z,946.94
2019-04-10T02:33:51.988Z,946.92
2019-04-10T02:34:53.186Z,947.02
2019-04-10T02:35:52.630Z,946.96
2019-04-10T02:36:52.899Z,947.02
2019-04-10T02:37:55.406Z,947.05
2019-04-10T02:39:02.021Z,947.00
2019-04-10T02:39:56.266Z,946.99
2019-04-10T02:40:53.074Z,946.94
2019-04-10T02:41:52.397Z,946.98
2019-04-10T02:42:51.734Z,946.95
2019-04-10T02:43:51.694Z,946.98
2019-04-10T02:44:52.125Z,946.91
2019-04-10T02:45:51.924Z,946.95
2019-04-10T02:46:51.972Z,946.98
2019-04-10T02:47:52.883Z,947.02
2019-04-10T02:48:52.077Z,946.95
2019-04-10T02:49:52.180Z,946.98
2019-04-10T02:50:51.613Z,947.02
2019-04-10T02:51:51.944Z,947.03
2019-04-10T02:52:51.601Z,946.94
2019-04-10T02:53:53.043Z,946.95
2019-04-10T02:54:53.573Z,946.92
2019-04-10T02:55:51.703Z,946.99
2019-04-10T02:56:52.795Z,946.98
2019-04-10T02:57:51.867Z,947.05
2019-04-10T02:58:51.702Z,946.93
2019-04-10T02:59:51.568Z,947.05
2019-04-10T03:00:52.512Z,946.97
2019-04-10T03:01:51.925Z,946.97
2019-04-10T03:02:52.047Z,946.98
2019-04-10T03:03:52.558Z,946.99
2019-04-10T03:04:53.191Z,946.93
2019-04-10T03:05:51.437Z,946.98
2019-04-10T03:06:51.636Z,947.02
2019-04-10T03:07:52.587Z,946.90
2019-04-10T03:09:08.051Z,947.02
2019-04-10T03:10:02.382Z,946.93
2019-04-10T03:10:59.043Z,947.02
2019-04-10T03:11:52.404Z,947.11
2019-04-10T03:12:52.579Z,947.02
2019-04-10T03:13:51.375Z,947.04
2019-04-10T03:14:52.291Z,946.98
2019-04-10T03:15:51.871Z,947.03
2019-04-10T03:16:51.502Z,946.97
2019-04-10T03:17:52.387Z,946.99
2019-04-10T03:18:51.545Z,947.01
2019-04-10T03:19:51.851Z,947.03
2019-04-10T03:20:51.285Z,947.00
2019-04-10T03:21:51.412Z,946.97
2019-04-10T03:22:51.426Z,947.04
2019-04-10T03:23:51.245Z,946.97
2019-04-10T03:24:51.237Z,947.04
2019-04-10T03:25:53.035Z,947.07
2019-04-10T03:26:52.170Z,947.07
2019-04-10T03:27:52.537Z,947.06
2019-04-10T03:28:51.456Z,947.04
2019-04-10T03:29:51.918Z,947.12
2019-04-10T03:30:51.288Z,947.07
2019-04-10T03:31:52.901Z,947.09
2019-04-10T03:32:57.230Z,947.02
2019-04-10T03:33:54.643Z,947.05
2019-04-10T03:34:51.350Z,946.95
2019-04-10T03:35:51.474Z,947.04
2019-04-10T03:36:51.774Z,947.02
2019-04-10T03:37:51.092Z,947.05
2019-04-10T03:38:59.543Z,947.01
2019-04-10T03:39:53.134Z,947.00
2019-04-10T03:40:51.427Z,947.06
2019-04-10T03:41:51.055Z,946.99
2019-04-10T03:42:51.046Z,947.01
2019-04-10T03:43:52.132Z,947.05
2019-04-10T03:44:51.386Z,946.98
2019-04-10T03:45:51.036Z,947.05
2019-04-10T03:46:52.322Z,947.03
2019-04-10T03:47:51.507Z,947.10
2019-04-10T03:48:51.522Z,947.11
2019-04-10T03:49:51.941Z,947.02
2019-04-10T03:50:52.090Z,947.01
2019-04-10T03:51:51.039Z,947.05
2019-04-10T03:52:51.699Z,947.13
2019-04-10T03:53:50.941Z,947.12
2019-04-10T03:54:50.896Z,947.02
2019-04-10T03:55:52.031Z,947.04
2019-04-10T03:56:51.017Z,947.10
2019-04-10T03:57:51.956Z,946.98
2019-04-10T03:58:51.657Z,947.03
2019-04-10T03:59:51.833Z,947.01
2019-04-10T04:00:50.845Z,947.06
2019-04-10T04:01:51.386Z,947.08
2019-04-10T04:02:51.796Z,947.02
2019-04-10T04:03:51.179Z,947.09
2019-04-10T04:04:50.805Z,947.08
2019-04-10T04:05:51.071Z,947.12
2019-04-10T04:06:50.839Z,947.03
2019-04-10T04:07:51.690Z,947.09
2019-04-10T04:09:01.551Z,947.08
2019-04-10T04:09:51.735Z,947.12
2019-04-10T04:10:51.243Z,947.06
2019-04-10T04:11:50.718Z,947.16
2019-04-10T04:12:50.981Z,947.10
2019-04-10T04:13:50.732Z,947.08
2019-04-10T04:14:50.736Z,947.05
2019-04-10T04:15:52.559Z,947.04
2019-04-10T04:16:51.223Z,947.02
2019-04-10T04:17:50.694Z,947.11
2019-04-10T04:18:51.236Z,946.99
2019-04-10T04:19:50.689Z,947.00
2019-04-10T04:20:50.996Z,947.09
2019-04-10T04:21:50.652Z,947.00
2019-04-10T04:22:50.605Z,947.02
2019-04-10T04:23:51.074Z,947.02
2019-04-10T04:24:50.659Z,947.09
2019-04-10T04:25:50.611Z,947.05
2019-04-10T04:26:50.804Z,947.02
2019-04-10T04:27:50.551Z,947.08
2019-04-10T04:28:51.544Z,947.05
2019-04-10T04:29:50.567Z,947.08
2019-04-10T04:30:53.092Z,947.08
2019-04-10T04:31:50.718Z,947.10
2019-04-10T04:32:50.581Z,947.08
2019-04-10T04:33:50.496Z,947.10
2019-04-10T04:34:50.532Z,947.16
2019-04-10T04:35:51.043Z,947.08
2019-04-10T04:36:51.413Z,947.10
2019-04-10T04:37:50.622Z,947.17
2019-04-10T04:38:51.392Z,947.10
2019-04-10T04:39:50.444Z,947.11
2019-04-10T04:40:51.425Z,947.15
2019-04-10T04:41:50.425Z,947.17
2019-04-10T04:42:51.360Z,947.15
2019-04-10T04:43:50.364Z,947.18
2019-04-10T04:44:50.365Z,947.12
2019-04-10T04:45:50.722Z,947.14
2019-04-10T04:46:50.627Z,947.13
2019-04-10T04:47:50.419Z,947.16
2019-04-10T04:48:50.317Z,947.12
2019-04-10T04:49:50.324Z,947.19
2019-04-10T04:50:50.324Z,947.21
2019-04-10T04:51:50.608Z,947.26
2019-04-10T04:52:50.394Z,947.18
2019-04-10T04:53:50.525Z,947.19
2019-04-10T04:54:50.285Z,947.21
2019-04-10T04:55:51.324Z,947.23
2019-04-10T04:56:50.535Z,947.23
2019-04-10T04:57:50.290Z,947.25
2019-04-10T04:58:50.244Z,947.26
2019-04-10T04:59:50.509Z,947.27
2019-04-10T05:00:50.832Z,947.24
2019-04-10T05:01:50.164Z,947.32
2019-04-10T05:02:50.165Z,947.28
2019-04-10T05:03:50.526Z,947.19
2019-04-10T05:04:50.182Z,947.30
2019-04-10T05:05:50.185Z,947.27
2019-04-10T05:06:50.199Z,947.19
2019-04-10T05:07:59.470Z,947.34
2019-04-10T05:08:51.125Z,947.28
2019-04-10T05:09:50.524Z,947.22
2019-04-10T05:10:50.109Z,947.29
2019-04-10T05:11:51.050Z,947.28
2019-04-10T05:12:50.134Z,947.28
2019-04-10T05:13:50.969Z,947.32
2019-04-10T05:14:50.034Z,947.34
2019-04-10T05:15:51.083Z,947.38
2019-04-10T05:16:50.073Z,947.38
2019-04-10T05:17:50.016Z,947.34
2019-04-10T05:18:50.175Z,947.40
2019-04-10T05:19:50.823Z,947.39
2019-04-10T05:20:50.977Z,947.30
2019-04-10T05:21:50.013Z,947.31
2019-04-10T05:22:52.075Z,947.34
2019-04-10T05:23:49.925Z,947.42
2019-04-10T05:24:49.922Z,947.39
2019-04-10T05:25:49.906Z,947.39
2019-04-10T05:26:51.096Z,947.42
2019-04-10T05:27:51.012Z,947.40
2019-04-10T05:28:50.840Z,947.39
2019-04-10T05:29:50.602Z,947.43
2019-04-10T05:30:50.609Z,947.40
2019-04-10T05:31:53.096Z,947.40
2019-04-10T05:32:49.824Z,947.45
2019-04-10T05:33:49.824Z,947.42
2019-04-10T05:34:50.391Z,947.48
2019-04-10T05:35:50.843Z,947.41
2019-04-10T05:36:49.800Z,947.48
2019-04-10T05:37:49.927Z,947.40
2019-04-10T05:38:51.004Z,947.46
2019-04-10T05:39:51.940Z,947.44
2019-04-10T05:40:50.730Z,947.38
2019-04-10T05:41:50.378Z,947.37
2019-04-10T05:42:50.174Z,947.46
2019-04-10T05:43:50.891Z,947.35
2019-04-10T05:44:50.171Z,947.50
2019-04-10T05:45:50.692Z,947.40
2019-04-10T05:46:49.781Z,947.37
2019-04-10T05:47:50.711Z,947.46
2019-04-10T05:48:50.530Z,947.45
2019-04-10T05:49:49.703Z,947.48
2019-04-10T05:50:56.631Z,947.43
2019-04-10T05:51:50.643Z,947.47
2019-04-10T05:52:49.699Z,947.50
2019-04-10T05:53:52.711Z,947.45
2019-04-10T05:54:49.663Z,947.47
2019-04-10T05:55:49.705Z,947.49
2019-04-10T05:56:50.405Z,947.48
2019-04-10T05:57:49.603Z,947.45
2019-04-10T05:58:49.629Z,947.54
2019-04-10T05:59:49.596Z,947.44
2019-04-10T06:00:49.922Z,947.45
2019-04-10T06:01:50.505Z,947.41
2019-04-10T06:02:50.296Z,947.44
2019-04-10T06:03:49.501Z,947.53
2019-04-10T06:04:49.711Z,947.48
2019-04-10T06:05:49.506Z,947.49
2019-04-10T06:06:49.526Z,947.52
2019-04-10T06:07:49.614Z,947.47
2019-04-10T06:08:49.483Z,947.55
2019-04-10T06:09:55.992Z,947.50
2019-04-10T06:10:50.418Z,947.58
2019-04-10T06:11:49.435Z,947.53
2019-04-10T06:12:49.445Z,947.59
2019-04-10T06:13:50.448Z,947.60
2019-04-10T06:14:50.413Z,947.54
2019-04-10T06:15:49.410Z,947.50
2019-04-10T06:16:49.378Z,947.56
2019-04-10T06:17:49.343Z,947.59
2019-04-10T06:18:49.380Z,947.58
2019-04-10T06:19:49.376Z,947.51
2019-04-10T06:20:49.420Z,947.55
2019-04-10T06:21:50.314Z,947.55
2019-04-10T06:22:50.605Z,947.58
2019-04-10T06:23:49.854Z,947.53
2019-04-10T06:24:49.285Z,947.57
2019-04-10T06:25:49.887Z,947.56
2019-04-10T06:26:50.098Z,947.60
2019-04-10T06:27:50.477Z,947.57
2019-04-10T06:28:49.215Z,947.61
2019-04-10T06:29:49.203Z,947.53
2019-04-10T06:30:50.299Z,947.54
2019-04-10T06:31:49.407Z,947.51
2019-04-10T06:32:49.437Z,947.59
2019-04-10T06:33:49.203Z,947.49
2019-04-10T06:34:50.117Z,947.56
2019-04-10T06:35:49.141Z,947.53
2019-04-10T06:36:49.426Z,947.56
2019-04-10T06:37:49.135Z,947.60
2019-04-10T06:38:49.103Z,947.53
2019-04-10T06:39:49.138Z,947.56
2019-04-10T06:40:50.285Z,947.53
2019-04-10T06:41:49.113Z,947.61
2019-04-10T06:42:52.232Z,947.53
2019-04-10T06:43:49.641Z,947.57
2019-04-10T06:44:50.179Z,947.52
2019-04-10T06:45:49.035Z,947.54
2019-04-10T06:46:49.059Z,947.57
2019-04-10T06:47:49.064Z,947.58
2019-04-10T06:48:50.019Z,947.62
2019-04-10T06:49:48.988Z,947.57
2019-04-10T06:50:49.019Z,947.52
2019-04-10T06:51:49.406Z,947.51
2019-04-10T06:52:49.289Z,947.51
2019-04-10T06:54:00.152Z,947.56
2019-04-10T06:54:51.044Z,947.60
2019-04-10T06:55:48.967Z,947.57
2019-04-10T06:56:48.904Z,947.62
2019-04-10T06:57:55.027Z,947.52
2019-04-10T06:58:49.961Z,947.57
2019-04-10T06:59:48.874Z,947.59
2019-04-10T07:00:52.925Z,947.53
2019-04-10T07:01:53.361Z,947.49
2019-04-10T07:02:50.554Z,947.57
2019-04-10T07:03:56.520Z,947.59
2019-04-10T07:04:54.184Z,947.58
2019-04-10T07:06:04.823Z,947.50
2019-04-10T07:06:59.761Z,947.61
2019-04-10T07:07:53.618Z,947.67
2019-04-10T07:08:50.900Z,947.64
2019-04-10T07:09:49.594Z,947.65
2019-04-10T07:10:54.618Z,947.67
2019-04-10T07:11:53.512Z,947.65
2019-04-10T07:12:49.735Z,947.62
2019-04-10T07:13:49.104Z,947.64
2019-04-10T07:14:50.770Z,947.65
2019-04-10T07:15:49.798Z,947.68
2019-04-10T07:16:48.733Z,947.64
2019-04-10T07:17:49.274Z,947.70
2019-04-10T07:18:49.443Z,947.67
2019-04-10T07:19:49.290Z,947.70
2019-04-10T07:20:48.975Z,947.68
2019-04-10T07:21:49.167Z,947.70
2019-04-10T07:22:49.663Z,947.64
2019-04-10T07:23:49.043Z,947.71
2019-04-10T07:24:51.273Z,947.74
2019-04-10T07:25:48.604Z,947.75
2019-04-10T07:26:50.535Z,947.69
2019-04-10T07:27:48.574Z,947.75
2019-04-10T07:28:50.064Z,947.65
2019-04-10T07:29:50.810Z,947.73
2019-04-10T07:30:48.760Z,947.66
2019-04-10T07:31:48.838Z,947.74
2019-04-10T07:32:49.171Z,947.81
2019-04-10T07:33:50.500Z,947.78
2019-04-10T07:34:48.727Z,947.79
2019-04-10T07:35:48.507Z,947.73
2019-04-10T07:36:48.463Z,947.76
2019-04-10T07:37:52.576Z,947.80
2019-04-10T07:38:53.490Z,947.79
2019-04-10T07:39:49.443Z,947.80
2019-04-10T07:40:49.125Z,947.84
2019-04-10T07:41:49.316Z,947.85
2019-04-10T07:42:48.678Z,947.74
2019-04-10T07:43:53.602Z,947.82
2019-04-10T07:44:49.414Z,947.84
2019-04-10T07:45:48.380Z,947.85
2019-04-10T07:46:48.861Z,947.83
2019-04-10T07:47:48.410Z,947.86
2019-04-10T07:48:48.383Z,947.84
2019-04-10T07:49:48.388Z,947.91
2019-04-10T07:50:48.544Z,947.96
2019-04-10T07:51:49.152Z,947.89
2019-04-10T07:52:48.295Z,947.90
2019-04-10T07:53:49.170Z,947.90
2019-04-10T07:54:48.274Z,947.92
2019-04-10T07:55:58.380Z,947.92
2019-04-10T07:56:49.451Z,947.91
2019-04-10T07:57:49.991Z,947.89
2019-04-10T07:58:48.299Z,947.92
2019-04-10T07:59:48.254Z,947.90
2019-04-10T08:00:49.760Z,947.90
2019-04-10T08:01:48.203Z,947.94
2019-04-10T08:02:49.160Z,947.87
2019-04-10T08:03:50.941Z,947.90
2019-04-10T08:04:48.349Z,947.90
2019-04-10T08:05:48.234Z,947.88
2019-04-10T08:06:48.161Z,947.86
2019-04-10T08:07:48.322Z,947.99
2019-04-10T08:08:49.156Z,947.92
2019-04-10T08:09:48.158Z,947.97
2019-04-10T08:10:48.777Z,947.94
2019-04-10T08:11:48.890Z,947.92
2019-04-10T08:12:52.112Z,947.96
2019-04-10T08:13:49.274Z,948.02
2019-04-10T08:14:48.534Z,948.02
2019-04-10T08:15:48.112Z,947.98
2019-04-10T08:16:48.041Z,947.97
2019-04-10T08:17:49.767Z,948.09
2019-04-10T08:18:48.013Z,948.07
2019-04-10T08:19:48.783Z,948.01
2019-04-10T08:20:48.942Z,948.11
2019-04-10T08:21:49.118Z,948.11
2019-04-10T08:22:47.965Z,948.09
2019-04-10T08:23:48.559Z,948.08
2019-04-10T08:24:49.109Z,948.09
2019-04-10T08:25:47.951Z,948.16
2019-04-10T08:26:47.930Z,948.17
2019-04-10T08:27:48.069Z,948.19
2019-04-10T08:28:47.902Z,948.20
2019-04-10T08:29:48.445Z,948.23
2019-04-10T08:30:48.353Z,948.14
2019-04-10T08:31:48.345Z,948.21
2019-04-10T08:32:57.199Z,948.26
2019-04-10T08:33:48.844Z,948.23
2019-04-10T08:34:48.626Z,948.23
2019-04-10T08:35:47.865Z,948.19
2019-04-10T08:36:47.949Z,948.26
2019-04-10T08:37:48.718Z,948.23
2019-04-10T08:38:48.875Z,948.24
2019-04-10T08:39:49.726Z,948.27
2019-04-10T08:40:48.230Z,948.30
2019-04-10T08:41:48.109Z,948.21
2019-04-10T08:42:47.751Z,948.28
2019-04-10T08:43:48.217Z,948.23
2019-04-10T08:44:48.661Z,948.26
2019-04-10T08:45:51.586Z,948.26
2019-04-10T08:46:48.280Z,948.21
2019-04-10T08:47:48.705Z,948.25
2019-04-10T08:48:47.741Z,948.31
2019-04-10T08:49:47.671Z,948.27
2019-04-10T08:50:47.659Z,948.28
2019-04-10T08:51:47.941Z,948.24
2019-04-10T08:52:48.671Z,948.27
2019-04-10T08:53:48.760Z,948.28
2019-04-10T08:54:47.622Z,948.27
2019-04-10T08:55:48.492Z,948.23
2019-04-10T08:56:47.592Z,948.29
2019-04-10T08:57:47.615Z,948.21
2019-04-10T08:58:48.379Z,948.25
2019-04-10T08:59:48.321Z,948.23
2019-04-10T09:00:47.552Z,948.18
2019-04-10T09:01:47.545Z,948.25
2019-04-10T09:02:48.613Z,948.19
2019-04-10T09:03:47.519Z,948.24
2019-04-10T09:04:47.532Z,948.23
2019-04-10T09:05:47.500Z,948.22
2019-04-10T09:06:47.495Z,948.26
2019-04-10T09:07:48.470Z,948.25
2019-04-10T09:08:47.485Z,948.22
2019-04-10T09:09:47.987Z,948.24
2019-04-10T09:10:47.451Z,948.30
2019-04-10T09:11:47.441Z,948.24
2019-04-10T09:12:47.470Z,948.28
2019-04-10T09:13:48.523Z,948.26
2019-04-10T09:14:47.634Z,948.24
2019-04-10T09:15:47.890Z,948.23
2019-04-10T09:16:47.373Z,948.28
2019-04-10T09:17:47.370Z,948.24
2019-04-10T09:18:47.604Z,948.27
2019-04-10T09:19:47.343Z,948.21
2019-04-10T09:20:47.385Z,948.32
2019-04-10T09:21:47.903Z,948.29
2019-04-10T09:23:10.722Z,948.24
2019-04-10T09:23:53.083Z,948.33
2019-04-10T09:24:48.859Z,948.31
2019-04-10T09:25:47.271Z,948.26
2019-04-10T09:26:47.298Z,948.27
2019-04-10T09:27:47.268Z,948.28
2019-04-10T09:28:47.261Z,948.24
2019-04-10T09:29:47.281Z,948.15
2019-04-10T09:30:47.237Z,948.16
2019-04-10T09:31:48.149Z,948.24
2019-04-10T09:32:47.232Z,948.20
2019-04-10T09:33:47.441Z,948.20
2019-04-10T09:34:48.155Z,948.27
2019-04-10T09:35:47.224Z,948.30
2019-04-10T09:36:47.170Z,948.16
2019-04-10T09:37:48.294Z,948.19
2019-04-10T09:38:47.343Z,948.15
2019-04-10T09:39:47.945Z,948.13
2019-04-10T09:40:47.121Z,948.17
2019-04-10T09:41:47.134Z,948.29
2019-04-10T09:42:48.017Z,948.18
2019-04-10T09:43:47.707Z,948.25
2019-04-10T09:44:47.094Z,948.28
2019-04-10T09:45:48.067Z,948.29
2019-04-10T09:46:47.312Z,948.31
2019-04-10T09:47:48.070Z,948.29
2019-04-10T09:48:47.684Z,948.25
2019-04-10T09:49:47.204Z,948.18
2019-04-10T09:50:48.064Z,948.18
2019-04-10T09:51:48.096Z,948.23
2019-04-10T09:52:48.180Z,948.29
2019-04-10T09:53:46.971Z,948.32
2019-04-10T09:54:46.960Z,948.20
2019-04-10T09:55:47.003Z,948.27
2019-04-10T09:56:46.939Z,948.21
2019-04-10T09:57:47.606Z,948.25
2019-04-10T09:58:46.943Z,948.25
2019-04-10T09:59:47.330Z,948.26
2019-04-10T10:00:48.094Z,948.30
2019-04-10T10:01:46.883Z,948.33
2019-04-10T10:02:47.288Z,948.34
2019-04-10T10:03:46.862Z,948.22
2019-04-10T10:04:47.870Z,948.33
2019-04-10T10:05:46.874Z,948.24
2019-04-10T10:06:47.355Z,948.31
2019-04-10T10:07:46.822Z,948.33
2019-04-10T10:08:47.899Z,948.32
2019-04-10T10:09:47.243Z,948.29
2019-04-10T10:10:47.198Z,948.29
2019-04-10T10:11:47.023Z,948.26
2019-04-10T10:12:46.772Z,948.26
2019-04-10T10:13:46.761Z,948.27
2019-04-10T10:14:46.750Z,948.24
2019-04-10T10:15:46.733Z,948.26
2019-04-10T10:16:46.763Z,948.29
2019-04-10T10:17:46.730Z,948.32
2019-04-10T10:18:47.719Z,948.25
2019-04-10T10:19:46.682Z,948.21
2019-04-10T10:20:46.674Z,948.29
2019-04-10T10:21:46.699Z,948.24
2019-04-10T10:22:47.492Z,948.27
2019-04-10T10:23:46.652Z,948.30
2019-04-10T10:24:46.844Z,948.31
2019-04-10T10:25:47.713Z,948.35
2019-04-10T10:26:46.671Z,948.32
2019-04-10T10:27:46.911Z,948.30
2019-04-10T10:28:47.105Z,948.26
2019-04-10T10:29:46.593Z,948.32
2019-04-10T10:30:47.389Z,948.29
2019-04-10T10:31:49.374Z,948.32
2019-04-10T10:32:46.562Z,948.31
2019-04-10T10:33:46.569Z,948.32
2019-04-10T10:34:46.969Z,948.27
2019-04-10T10:35:47.424Z,948.32
2019-04-10T10:36:48.931Z,948.32
2019-04-10T10:37:46.528Z,948.33
2019-04-10T10:38:47.471Z,948.30
2019-04-10T10:39:47.246Z,948.33
2019-04-10T10:40:46.645Z,948.33
2019-04-10T10:41:46.817Z,948.23
2019-04-10T10:42:47.620Z,948.36
2019-04-10T10:43:46.728Z,948.31
2019-04-10T10:44:46.411Z,948.34
2019-04-10T10:45:47.132Z,948.30
2019-04-10T10:46:47.375Z,948.30
2019-04-10T10:47:46.500Z,948.39
2019-04-10T10:48:46.402Z,948.34
2019-04-10T10:49:46.618Z,948.35
2019-04-10T10:50:46.352Z,948.41
2019-04-10T10:51:46.792Z,948.37
2019-04-10T10:52:46.391Z,948.37
2019-04-10T10:53:46.358Z,948.35
2019-04-10T10:54:47.265Z,948.34
2019-04-10T10:55:47.509Z,948.32
2019-04-10T10:56:46.707Z,948.39
2019-04-10T10:57:47.059Z,948.38
2019-04-10T10:58:46.262Z,948.32
2019-04-10T10:59:46.317Z,948.37
2019-04-10T11:00:47.288Z,948.37
2019-04-10T11:01:46.347Z,948.43
2019-04-10T11:02:46.229Z,948.49
2019-04-10T11:03:46.689Z,948.35
2019-04-10T11:04:47.418Z,948.33
2019-04-10T11:05:46.489Z,948.43
2019-04-10T11:06:55.359Z,948.43
2019-04-10T11:07:47.191Z,948.37
2019-04-10T11:08:46.155Z,948.36
2019-04-10T11:09:46.205Z,948.37
2019-04-10T11:11:47.173Z,948.37
2019-04-10T11:12:46.610Z,948.36
2019-04-10T11:13:46.911Z,948.35
2019-04-10T11:14:46.133Z,948.34
2019-04-10T11:15:46.119Z,948.38
2019-04-10T11:16:46.991Z,948.41
2019-04-10T11:17:46.158Z,948.51
2019-04-10T11:18:46.869Z,948.39
2019-04-10T11:19:47.330Z,948.41
2019-04-10T11:20:46.023Z,948.39
2019-04-10T11:21:47.055Z,948.45
2019-04-10T11:22:47.339Z,948.37
2019-04-10T11:23:46.851Z,948.45
2019-04-10T11:24:47.126Z,948.40
2019-04-10T11:25:46.472Z,948.44
2019-04-10T11:26:46.261Z,948.33
2019-04-10T11:27:46.033Z,948.48
2019-04-10T11:28:45.972Z,948.38
2019-04-10T11:29:46.756Z,948.45
2019-04-10T11:30:47.481Z,948.47
2019-04-10T11:31:46.981Z,948.40
2019-04-10T11:32:46.306Z,948.43
2019-04-10T11:34:46.889Z,948.41
2019-04-10T11:35:45.965Z,948.48
2019-04-10T11:36:45.883Z,948.50
2019-04-10T11:37:49.387Z,948.46
2019-04-10T11:38:46.868Z,948.45
2019-04-10T11:39:47.558Z,948.45
2019-04-10T11:40:47.253Z,948.39
2019-04-10T11:41:48.804Z,948.39
2019-04-10T11:42:46.942Z,948.39
2019-04-10T11:43:46.610Z,948.43
2019-04-10T11:44:47.272Z,948.43
2019-04-10T11:45:52.031Z,948.39
2019-04-10T11:46:46.747Z,948.47
2019-04-10T11:47:47.556Z,948.44
2019-04-10T11:48:46.932Z,948.34
2019-04-10T11:49:47.176Z,948.50
2019-04-10T11:50:46.172Z,948.44
2019-04-10T11:51:46.912Z,948.41
2019-04-10T11:52:52.132Z,948.32
2019-04-10T11:53:48.703Z,948.40
2019-04-10T11:54:48.534Z,948.40
2019-04-10T11:56:49.055Z,948.44
2019-04-10T11:57:47.541Z,948.45
2019-04-10T11:58:51.251Z,948.41
2019-04-10T11:59:48.824Z,948.42
2019-04-10T12:01:48.377Z,948.48
2019-04-10T12:02:47.974Z,948.50
2019-04-10T12:03:49.068Z,948.60
2019-04-10T12:04:53.753Z,948.47
2019-04-10T12:05:48.558Z,948.47
2019-04-10T12:06:49.121Z,948.47
2019-04-10T12:08:08.940Z,948.51
2019-04-10T12:09:08.415Z,948.54
2019-04-10T12:11:46.908Z,948.61
2019-04-10T12:12:45.927Z,948.52
2019-04-10T12:13:46.216Z,948.57
2019-04-10T12:14:45.873Z,948.53
2019-04-10T12:15:45.493Z,948.57
2019-04-10T12:16:45.446Z,948.64
2019-04-10T12:17:46.387Z,948.66
2019-04-10T12:18:45.402Z,948.57
2019-04-10T12:19:45.415Z,948.59
2019-04-10T12:20:45.388Z,948.55
2019-04-10T12:21:46.279Z,948.65
2019-04-10T12:22:46.211Z,948.59
2019-04-10T12:23:45.343Z,948.48
2019-04-10T12:24:48.484Z,948.62
2019-04-10T12:25:45.361Z,948.57
2019-04-10T12:26:45.312Z,948.63
2019-04-10T12:27:45.401Z,948.66
2019-04-10T12:28:46.439Z,948.62
2019-04-10T12:29:45.274Z,948.58
2019-04-10T12:30:45.787Z,948.63
2019-04-10T12:31:45.283Z,948.60
2019-04-10T12:32:46.398Z,948.59
2019-04-10T12:33:45.221Z,948.62
2019-04-10T12:34:45.223Z,948.61